Time;durP1;ratioP1;P1;durP2;ratioP2;P2;SDS_P1;SDS_P2;PMS_P1;PMS_P2;Temp;Humidity;BMP_temperature;BMP_pressure;BME280_temperature;BME280_humidity;BME280_pressure;Samples;Min_cycle;Max_cycle;Signal;HPM_P1;HPM_P2
2021/12/13 00:00:22;;;;;;;;;;;;;;;1.83;82.91;95222.06;5117179;28;977;-48
2021/12/13 00:02:50;;;;;;;;;;;;;;;1.87;82.96;95234.09;5116995;28;988;-48
2021/12/13 00:05:27;;;;;;;;;;;;;;;1.86;82.84;95221.88;5116035;28;989;-48
2021/12/13 00:07:59;;;;;;;;;;;;;;;1.74;82.82;95226.16;5116986;28;1056;-48
2021/12/13 00:10:29;;;;;;;;;;;;;;;1.86;82.13;95232.41;5116542;28;1053;-48
2021/12/13 00:13:02;;;;;;;;;;;;;;;1.74;82.28;95230.59;5117027;28;985;-48
2021/12/13 00:15:32;;;;;;;;;;;;;;;1.64;83.13;95233.03;5116693;28;985;-48
2021/12/13 00:17:59;;;;;;;;;;;;;;;1.69;83.03;95238.84;5116710;28;1027;-48
2021/12/13 00:20:29;;;;;;;;;;;;;;;1.68;82.48;95239.78;5116271;28;2005;-48
2021/12/13 00:23:01;;;;;;;;;;;;;;;1.64;83.05;95233.03;5116421;28;1112;-48
2021/12/13 00:25:29;;;;;;;;;;;;;;;1.70;82.47;95242.31;5116543;28;1008;-48
2021/12/13 00:27:58;;;;;;;;;;;;;;;1.69;82.96;95252.03;5116275;28;1036;-48
2021/12/13 00:30:24;;;;;;;;;;;;;;;1.79;82.57;95252.22;5116029;28;1295;-48
2021/12/13 00:32:50;;;;;;;;;;;;;;;1.78;82.43;95253.16;5116611;28;1054;-48
2021/12/13 00:35:21;;;;;;;;;;;;;;;1.75;82.33;95245.50;5116254;28;1047;-48
2021/12/13 00:37:51;;;;;;;;;;;;;;;1.88;81.79;95250.78;5116112;28;1151;-48
2021/12/13 00:40:19;;;;;;;;;;;;;;;1.95;80.97;95258.16;5115825;28;1982;-48
2021/12/13 00:42:49;;;;;;;;;;;;;;;2.03;80.73;95254.97;5116003;28;1997;-48
2021/12/13 00:45:17;;;;;;;;;;;;;;;1.97;80.64;95246.63;5116175;28;1000;-48
2021/12/13 00:47:43;;;;;;;;;;;;;;;1.89;81.18;95245.38;5115875;28;1131;-48
2021/12/13 00:50:19;;;;;;;;;;;;;;;1.83;81.75;95243.16;5115736;28;1057;-48
2021/12/13 00:52:47;;;;;;;;;;;;;;;1.83;81.52;95247.59;5115976;28;992;-48
2021/12/13 00:55:20;;;;;;;;;;;;;;;1.87;81.57;95246.44;5116041;28;980;-48
2021/12/13 00:57:48;;;;;;;;;;;;;;;1.70;82.21;95244.94;5115994;28;1039;-48
2021/12/13 01:00:30;;;;;;;;;;;;;;;1.68;83.32;95237.16;5114334;28;1906;-48
2021/12/13 01:02:58;;;;;;;;;;;;;;;1.52;82.77;95237.34;5115579;28;1989;-48
2021/12/13 01:05:24;;;;;;;;;;;;;;;1.57;82.90;95244.94;5115475;28;1974;-48
2021/12/13 01:08:08;;;;;;;;;;;;;;;1.67;82.64;95243.38;5115265;28;1112;-48
2021/12/13 01:10:49;;;;;;;;;;;;;;;1.62;82.92;95240.22;5115749;28;1047;-48
2021/12/13 01:13:21;;;;;;;;;;;;;;;1.73;81.85;95227.13;5115505;28;1056;-48
2021/12/13 01:15:52;;;;;;;;;;;;;;;1.83;81.62;95227.34;5115643;28;1042;-48
2021/12/13 01:18:31;;;;;;;;;;;;;;;1.76;82.08;95223.44;5115651;28;1055;-48
2021/12/13 01:21:02;;;;;;;;;;;;;;;1.78;81.76;95233.88;5115092;28;1984;-48
2021/12/13 01:23:45;;;;;;;;;;;;;;;1.75;81.94;95225.25;5115076;28;976;-48
2021/12/13 01:26:27;;;;;;;;;;;;;;;1.69;82.13;95230.94;5115241;28;1175;-48
2021/12/13 01:29:00;;;;;;;;;;;;;;;1.68;82.51;95234.50;5114844;28;1377;-49
2021/12/13 01:31:31;;;;;;;;;;;;;;;1.58;82.87;95225.56;5115200;28;1044;-48
2021/12/13 01:33:58;;;;;;;;;;;;;;;1.68;82.44;95223.97;5115178;28;988;-49
2021/12/13 01:36:28;;;;;;;;;;;;;;;1.56;82.77;95224.81;5114991;28;1056;-48
2021/12/13 01:38:57;;;;;;;;;;;;;;;1.48;83.17;95219.19;5115253;28;1051;-48
2021/12/13 01:41:28;;;;;;;;;;;;;;;1.56;83.03;95227.47;5114980;28;1910;-48
2021/12/13 01:44:05;;;;;;;;;;;;;;;1.51;83.33;95219.84;5114856;28;1132;-48
2021/12/13 01:46:36;;;;;;;;;;;;;;;1.62;82.86;95231.47;5114795;28;1069;-49
2021/12/13 01:49:02;;;;;;;;;;;;;;;1.67;82.52;95231.97;5114629;28;1056;-48
2021/12/13 01:51:33;;;;;;;;;;;;;;;1.67;82.61;95230.19;5114861;28;964;-48
2021/12/13 01:53:59;;;;;;;;;;;;;;;1.64;82.79;95227.75;5114667;28;1115;-48
2021/12/13 01:59:15;;;;;;;;;;;;;;;1.50;83.53;95231.34;5114513;28;1113;-48
2021/12/13 02:01:43;;;;;;;;;;;;;;;1.48;83.86;95227.09;5114481;28;1898;-48
2021/12/13 02:04:11;;;;;;;;;;;;;;;1.44;84.13;95223.00;5114671;28;980;-48
2021/12/13 02:06:41;;;;;;;;;;;;;;;1.54;83.84;95221.44;5114618;28;995;-48
2021/12/13 02:09:12;;;;;;;;;;;;;;;1.60;83.19;95221.03;5114448;28;1270;-48
2021/12/13 02:11:38;;;;;;;;;;;;;;;1.60;83.14;95218.38;5114377;28;1103;-48
2021/12/13 02:14:14;;;;;;;;;;;;;;;1.59;82.98;95214.03;5114393;28;1061;-48
2021/12/13 02:19:50;;;;;;;;;;;;;;;1.77;82.07;95214.59;5051033;28;1306;-48
2021/12/13 02:22:35;;;;;;;;;;;;;;;1.66;82.43;95209.22;5102461;28;1910;-49
2021/12/13 02:25:04;;;;;;;;;;;;;;;1.57;83.11;95213.31;5114488;28;995;-48
2021/12/13 02:27:33;;;;;;;;;;;;;;;1.65;82.55;95208.38;5114076;27;973;-48
2021/12/13 02:30:03;;;;;;;;;;;;;;;1.71;82.36;95218.50;5113965;28;1335;-48
2021/12/13 02:32:35;;;;;;;;;;;;;;;1.71;82.47;95223.75;5114274;28;1003;-48
2021/12/13 02:35:03;;;;;;;;;;;;;;;1.66;82.93;95217.13;5114280;28;1051;-48
2021/12/13 02:37:29;;;;;;;;;;;;;;;1.63;83.00;95220.81;5114312;28;965;-49
2021/12/13 02:39:58;;;;;;;;;;;;;;;1.69;82.68;95217.75;5114010;28;941;-48
2021/12/13 02:42:25;;;;;;;;;;;;;;;1.71;82.62;95217.66;5114021;28;1986;-48
2021/12/13 02:44:57;;;;;;;;;;;;;;;1.64;82.47;95221.66;5113875;28;925;-48
2021/12/13 02:47:25;;;;;;;;;;;;;;;1.63;82.77;95220.81;5114306;28;973;-48
2021/12/13 02:49:52;;;;;;;;;;;;;;;1.60;82.78;95221.03;5114021;28;976;-48
2021/12/13 02:52:19;;;;;;;;;;;;;;;1.59;82.86;95219.31;5114231;28;981;-48
2021/12/13 02:54:48;;;;;;;;;;;;;;;1.54;83.08;95214.38;5114200;28;1009;-48
2021/12/13 02:57:34;;;;;;;;;;;;;;;1.61;83.10;95222.69;5114161;28;1049;-48
2021/12/13 03:00:11;;;;;;;;;;;;;;;1.75;82.60;95219.13;5113779;28;1918;-48
2021/12/13 03:02:39;;;;;;;;;;;;;;;1.78;81.99;95216.25;5114142;28;964;-48
2021/12/13 03:05:11;;;;;;;;;;;;;;;1.68;82.04;95216.06;5113712;28;1055;-48
2021/12/13 03:07:41;;;;;;;;;;;;;;;1.75;81.79;95225.25;5112604;28;1050;-48
2021/12/13 03:10:10;;;;;;;;;;;;;;;1.66;82.81;95219.75;5113705;28;1027;-48
2021/12/13 03:12:37;;;;;;;;;;;;;;;1.59;82.46;95224.59;5113948;28;1048;-49
2021/12/13 03:15:06;;;;;;;;;;;;;;;1.66;82.38;95215.31;5113878;28;1034;-48
2021/12/13 03:17:35;;;;;;;;;;;;;;;1.59;82.61;95215.84;5113874;28;1036;-48
2021/12/13 03:20:09;;;;;;;;;;;;;;;1.53;83.03;95217.94;5113827;28;1059;-48
2021/12/13 03:22:54;;;;;;;;;;;;;;;1.62;82.78;95215.66;5113928;28;1047;-48
2021/12/13 03:25:32;;;;;;;;;;;;;;;1.66;82.35;95223.22;5113871;28;1000;-48
2021/12/13 03:28:21;;;;;;;;;;;;;;;1.68;82.46;95220.50;5113779;28;1057;-48
2021/12/13 03:31:04;;;;;;;;;;;;;;;1.65;81.76;95229.47;5084286;28;1329;-49
2021/12/13 03:33:40;;;;;;;;;;;;;;;1.57;82.35;95231.75;5113511;28;1016;-48
2021/12/13 03:36:09;;;;;;;;;;;;;;;1.54;82.52;95227.56;5113720;28;1047;-48
2021/12/13 03:38:44;;;;;;;;;;;;;;;1.53;82.95;95228.47;5113607;28;1060;-48
2021/12/13 03:41:12;;;;;;;;;;;;;;;1.56;82.70;95230.09;5116163;28;2010;-48
2021/12/13 03:43:43;;;;;;;;;;;;;;;1.43;83.25;95231.88;5117153;28;1995;-48
2021/12/13 03:46:11;;;;;;;;;;;;;;;1.41;82.96;95234.59;5117146;28;1041;-48
2021/12/13 03:48:39;;;;;;;;;;;;;;;1.52;82.96;95237.34;5117141;28;1074;-48
2021/12/13 03:51:07;;;;;;;;;;;;;;;1.60;82.19;95234.19;5117283;28;1032;-48
2021/12/13 03:53:34;;;;;;;;;;;;;;;1.63;82.17;95231.38;5117025;28;1029;-48
2021/12/13 03:56:04;;;;;;;;;;;;;;;1.56;82.19;95235.34;5116853;28;1051;-48
2021/12/13 03:58:33;;;;;;;;;;;;;;;1.63;81.78;95230.50;5117249;28;988;-48
2021/12/13 04:01:01;;;;;;;;;;;;;;;1.54;81.74;95224.91;5117038;28;1906;-48
2021/12/13 04:03:27;;;;;;;;;;;;;;;1.42;82.72;95232.81;5116694;28;1065;-48
2021/12/13 04:05:54;;;;;;;;;;;;;;;1.40;82.79;95232.06;5116825;28;1063;-48
2021/12/13 04:08:22;;;;;;;;;;;;;;;1.38;82.87;95234.78;5116632;28;1041;-48
2021/12/13 04:10:49;;;;;;;;;;;;;;;1.42;82.90;95225.72;5116658;28;972;-48
2021/12/13 04:13:17;;;;;;;;;;;;;;;1.50;82.30;95228.72;5116886;28;1023;-48
2021/12/13 04:18:41;;;;;;;;;;;;;;;1.43;82.03;95229.22;5116493;28;1033;-48
2021/12/13 04:21:09;;;;;;;;;;;;;;;1.49;81.76;95223.53;5116639;28;1914;-48
2021/12/13 04:23:36;;;;;;;;;;;;;;;1.42;82.38;95231.00;5116651;28;1015;-48
2021/12/13 04:26:04;;;;;;;;;;;;;;;1.49;82.01;95227.00;5116577;28;980;-48
2021/12/13 04:28:37;;;;;;;;;;;;;;;1.43;82.13;95229.22;5115278;28;1065;-48
2021/12/13 04:31:05;;;;;;;;;;;;;;;1.44;81.95;95231.78;5115852;28;1287;-47
2021/12/13 04:33:36;;;;;;;;;;;;;;;1.52;81.41;95231.25;5116021;28;1108;-47
2021/12/13 04:36:10;;;;;;;;;;;;;;;1.45;81.75;95237.88;5116156;28;1020;-48
2021/12/13 04:38:50;;;;;;;;;;;;;;;1.43;81.90;95234.50;5116307;28;1008;-48
2021/12/13 04:41:21;;;;;;;;;;;;;;;1.49;81.93;95234.91;5116139;28;2000;-48
2021/12/13 04:43:47;;;;;;;;;;;;;;;1.60;80.85;95226.28;5116441;28;1964;-48
2021/12/13 04:46:17;;;;;;;;;;;;;;;1.64;80.47;95229.56;5115837;28;1096;-48
2021/12/13 04:48:45;;;;;;;;;;;;;;;1.59;80.35;95224.59;5116059;28;1099;-49
2021/12/13 04:51:15;;;;;;;;;;;;;;;1.51;80.42;95230.38;5115678;27;976;-48
2021/12/13 04:53:44;;;;;;;;;;;;;;;1.45;80.70;95233.44;5115765;28;1056;-48
2021/12/13 04:56:16;;;;;;;;;;;;;;;1.52;80.15;95236.53;5115820;28;993;-48
2021/12/13 04:58:43;;;;;;;;;;;;;;;1.47;80.82;95230.72;5115722;28;1040;-48
2021/12/13 05:01:13;;;;;;;;;;;;;;;1.45;80.67;95228.16;5115469;28;1909;-48
2021/12/13 05:03:41;;;;;;;;;;;;;;;1.52;80.49;95239.16;5115547;28;1104;-48
2021/12/13 05:06:14;;;;;;;;;;;;;;;1.50;80.60;95231.34;5115548;28;1131;-48
2021/12/13 05:08:40;;;;;;;;;;;;;;;1.54;80.24;95230.19;5115754;28;1051;-48
2021/12/13 05:11:08;;;;;;;;;;;;;;;1.40;80.00;95232.91;5115741;28;1063;-48
2021/12/13 05:13:45;;;;;;;;;;;;;;;1.49;80.34;95228.81;5115838;28;980;-48
2021/12/13 05:16:12;;;;;;;;;;;;;;;1.59;79.64;95235.13;5115391;28;1107;-48
2021/12/13 05:18:51;;;;;;;;;;;;;;;1.48;80.08;95237.66;5115540;28;1043;-48
2021/12/13 05:21:33;;;;;;;;;;;;;;;1.58;79.42;95241.38;5115643;28;1906;-48
2021/12/13 05:24:02;;;;;;;;;;;;;;;1.69;79.13;95241.47;5115266;28;1048;-49
2021/12/13 05:26:31;;;;;;;;;;;;;;;1.71;78.85;95234.31;5115134;28;1076;-48
2021/12/13 05:28:57;;;;;;;;;;;;;;;1.67;78.53;95239.88;5115027;28;1632;-49
2021/12/13 05:31:24;;;;;;;;;;;;;;;1.66;78.02;95236.41;5115253;28;1051;-48
2021/12/13 05:33:53;;;;;;;;;;;;;;;1.64;77.85;95235.66;5115130;28;1047;-48
2021/12/13 05:36:24;;;;;;;;;;;;;;;1.70;78.31;95232.59;5115190;27;1060;-48
2021/12/13 05:39:00;;;;;;;;;;;;;;;1.62;77.45;95242.84;5115003;28;1095;-48
2021/12/13 05:41:27;;;;;;;;;;;;;;;1.64;77.67;95240.09;5114873;28;1905;-48
2021/12/13 05:43:55;;;;;;;;;;;;;;;1.70;77.71;95240.50;5114793;28;1037;-48
2021/12/13 05:46:25;;;;;;;;;;;;;;;1.75;76.94;95241.06;5114964;28;969;-48
2021/12/13 05:48:54;;;;;;;;;;;;;;;1.82;76.62;95251.16;5115020;28;1052;-48
2021/12/13 05:51:38;;;;;;;;;;;;;;;1.85;76.58;95250.97;5114760;27;1100;-48
2021/12/13 05:54:04;;;;;;;;;;;;;;;1.77;77.07;95245.38;5114895;28;966;-48
2021/12/13 05:56:52;;;;;;;;;;;;;;;1.75;77.00;95253.41;5114808;28;1109;-48
2021/12/13 05:59:18;;;;;;;;;;;;;;;1.70;77.93;95258.97;5114717;28;976;-48
2021/12/13 06:01:47;;;;;;;;;;;;;;;1.78;77.17;95247.91;5113397;28;1909;-48
2021/12/13 06:04:17;;;;;;;;;;;;;;;1.79;76.69;95257.50;5114203;28;969;-48
2021/12/13 06:06:49;;;;;;;;;;;;;;;1.78;76.50;95255.81;5114493;28;1061;-48
2021/12/13 06:09:33;;;;;;;;;;;;;;;1.83;76.07;95263.41;5114863;28;1012;-48
2021/12/13 06:12:03;;;;;;;;;;;;;;;1.74;76.49;95260.44;5114414;28;972;-47
2021/12/13 06:14:29;;;;;;;;;;;;;;;1.77;76.46;95266.47;5114655;28;1004;-48
2021/12/13 06:16:55;;;;;;;;;;;;;;;1.78;75.98;95260.25;5114361;28;969;-49
2021/12/13 06:19:30;;;;;;;;;;;;;;;1.77;76.26;95271.75;5114412;28;973;-48
2021/12/13 06:22:05;;;;;;;;;;;;;;;1.86;75.13;95273.72;5114368;28;2004;-48
2021/12/13 06:24:35;;;;;;;;;;;;;;;1.88;75.17;95275.34;5114125;28;1045;-48
2021/12/13 06:30:24;;;;;;;;;;;;;;;1.76;75.83;95284.06;5113979;28;1236;-48
2021/12/13 06:32:59;;;;;;;;;;;;;;;1.84;75.75;95294.97;5113946;28;916;-48
2021/12/13 06:35:45;;;;;;;;;;;;;;;1.90;75.26;95288.41;5112924;28;1175;-48
2021/12/13 06:38:20;;;;;;;;;;;;;;;1.94;74.95;95300.44;5114315;28;1017;-48
2021/12/13 06:40:48;;;;;;;;;;;;;;;1.93;74.62;95304.84;5114124;28;1978;-48
2021/12/13 06:43:26;;;;;;;;;;;;;;;1.88;75.05;95303.50;5114270;28;1035;-48
2021/12/13 06:45:52;;;;;;;;;;;;;;;1.99;74.79;95300.94;5114039;28;1075;-48
2021/12/13 06:48:31;;;;;;;;;;;;;;;2.02;73.98;95300.75;5113919;28;1092;-49
2021/12/13 06:50:57;;;;;;;;;;;;;;;2.02;74.15;95299.91;5114020;28;941;-49
2021/12/13 06:53:23;;;;;;;;;;;;;;;2.06;74.39;95304.88;5113977;28;1066;-48
2021/12/13 06:55:49;;;;;;;;;;;;;;;2.12;74.47;95308.88;5113990;28;1056;-48
2021/12/13 06:58:20;;;;;;;;;;;;;;;2.17;73.86;95313.84;5114062;28;1047;-48
2021/12/13 07:00:48;;;;;;;;;;;;;;;2.12;74.81;95320.25;5114017;28;1909;-48
2021/12/13 07:03:22;;;;;;;;;;;;;;;2.27;74.31;95320.16;5113815;28;1069;-48
2021/12/13 07:05:48;;;;;;;;;;;;;;;2.19;73.73;95317.22;5114188;28;972;-48
2021/12/13 07:08:17;;;;;;;;;;;;;;;2.11;74.16;95310.66;5114167;28;1096;-48
2021/12/13 07:10:45;;;;;;;;;;;;;;;2.19;74.22;95310.13;5113832;28;1045;-49
2021/12/13 07:13:21;;;;;;;;;;;;;;;2.20;73.86;95321.53;5114034;28;1051;-48
2021/12/13 07:15:56;;;;;;;;;;;;;;;2.24;74.23;95323.00;5117968;28;1039;-48
2021/12/13 07:18:29;;;;;;;;;;;;;;;2.27;74.31;95330.72;5117724;28;969;-48
2021/12/13 07:21:01;;;;;;;;;;;;;;;2.21;73.59;95325.88;5117517;28;1997;-48
2021/12/13 07:23:47;;;;;;;;;;;;;;;2.32;73.85;95318.91;5117593;28;1103;-48
2021/12/13 07:26:13;;;;;;;;;;;;;;;2.37;74.30;95323.84;5117377;28;1989;-48
2021/12/13 07:28:40;;;;;;;;;;;;;;;2.42;73.88;95321.72;5117626;28;1287;-47
2021/12/13 07:31:07;;;;;;;;;;;;;;;2.51;72.86;95329.00;5117269;28;1064;-48
2021/12/13 07:33:35;;;;;;;;;;;;;;;2.51;72.99;95331.66;5117315;28;945;-48
2021/12/13 07:36:13;;;;;;;;;;;;;;;2.43;73.66;95331.34;5117389;28;1049;-48
2021/12/13 07:38:46;;;;;;;;;;;;;;;2.47;74.21;95331.97;5117116;27;999;-48
2021/12/13 07:41:12;;;;;;;;;;;;;;;2.57;73.85;95327.72;5117203;28;1997;-48
2021/12/13 07:43:42;;;;;;;;;;;;;;;2.36;74.02;95326.59;5117173;28;1100;-48
2021/12/13 07:46:20;;;;;;;;;;;;;;;2.47;74.36;95338.09;5117216;28;1004;-48
2021/12/13 07:48:46;;;;;;;;;;;;;;;2.59;73.64;95331.09;5117136;28;1044;-48
2021/12/13 07:51:12;;;;;;;;;;;;;;;2.59;73.79;95340.81;5117264;28;977;-48
2021/12/13 07:53:41;;;;;;;;;;;;;;;2.54;74.52;95342.00;5116867;28;1042;-49
2021/12/13 07:56:09;;;;;;;;;;;;;;;2.69;73.92;95347.13;5117198;28;1060;-48
2021/12/13 07:58:37;;;;;;;;;;;;;;;2.76;73.43;95339.63;5117161;28;1016;-49
2021/12/13 08:01:12;;;;;;;;;;;;;;;2.91;73.20;95339.38;5116939;28;1921;-48
2021/12/13 08:03:46;;;;;;;;;;;;;;;2.88;73.15;95349.31;5117106;28;973;-48
2021/12/13 08:06:12;;;;;;;;;;;;;;;2.76;74.02;95348.41;5117093;28;1027;-48
2021/12/13 08:08:45;;;;;;;;;;;;;;;2.86;73.72;95341.50;5116841;28;965;-48
2021/12/13 08:11:11;;;;;;;;;;;;;;;2.99;72.63;95349.38;5116700;28;1116;-48
2021/12/13 08:13:37;;;;;;;;;;;;;;;2.99;72.78;95345.91;5116944;28;964;-48
2021/12/13 08:16:05;;;;;;;;;;;;;;;3.06;72.16;95347.16;5116714;28;949;-48
2021/12/13 08:18:37;;;;;;;;;;;;;;;3.10;72.22;95351.28;5116803;28;956;-48
2021/12/13 08:21:06;;;;;;;;;;;;;;;3.20;71.97;95351.44;5116452;28;1995;-48
2021/12/13 08:23:53;;;;;;;;;;;;;;;3.38;71.58;95349.25;5116579;28;1024;-48
2021/12/13 08:26:32;;;;;;;;;;;;;;;3.28;71.76;95346.44;5115613;28;2022;-48
2021/12/13 08:29:00;;;;;;;;;;;;;;;3.30;71.05;95352.44;5116065;28;1259;-50
2021/12/13 08:31:32;;;;;;;;;;;;;;;3.46;71.74;95353.03;5116266;28;1875;-48
2021/12/13 08:34:11;;;;;;;;;;;;;;;3.56;70.69;95352.34;5116125;28;1057;-48
2021/12/13 08:36:43;;;;;;;;;;;;;;;3.70;70.74;95360.13;5116384;28;997;-48
2021/12/13 08:39:09;;;;;;;;;;;;;;;3.67;71.69;95355.88;5116212;28;1028;-48
2021/12/13 08:41:35;;;;;;;;;;;;;;;3.62;71.67;95351.88;5116000;28;1987;-48
2021/12/13 08:44:09;;;;;;;;;;;;;;;3.66;70.75;95359.50;5115997;28;1092;-48
2021/12/13 08:46:35;;;;;;;;;;;;;;;3.71;70.98;95354.69;5114887;28;1147;-48
2021/12/13 08:49:12;;;;;;;;;;;;;;;3.75;70.58;95349.19;5116209;28;1067;-47
2021/12/13 08:51:47;;;;;;;;;;;;;;;3.66;70.96;95348.94;5116140;28;1134;-48
2021/12/13 08:54:15;;;;;;;;;;;;;;;3.57;70.77;95354.06;5116228;28;1063;-48
2021/12/13 08:56:45;;;;;;;;;;;;;;;3.65;70.40;95349.88;5115756;28;1119;-48
2021/12/13 08:59:24;;;;;;;;;;;;;;;3.69;70.23;95347.84;5115653;28;1047;-48
2021/12/13 09:01:52;;;;;;;;;;;;;;;3.82;69.63;95353.06;5116014;28;1917;-48
2021/12/13 09:04:26;;;;;;;;;;;;;;;3.77;70.05;95353.38;5115927;28;1036;-48
2021/12/13 09:06:54;;;;;;;;;;;;;;;3.65;70.18;95343.75;5115793;28;997;-48
2021/12/13 09:09:21;;;;;;;;;;;;;;;3.49;70.38;95344.03;5115725;28;1004;-48
2021/12/13 09:12:04;;;;;;;;;;;;;;;3.37;71.27;95347.56;5115446;28;1072;-48
2021/12/13 09:14:38;;;;;;;;;;;;;;;3.45;70.09;95342.56;5115653;28;1058;-48
2021/12/13 09:17:16;;;;;;;;;;;;;;;3.32;71.26;95330.25;5115772;27;980;-48
2021/12/13 09:19:51;;;;;;;;;;;;;;;3.26;71.80;95341.28;5115475;28;1123;-48
2021/12/13 09:22:31;;;;;;;;;;;;;;;3.30;71.06;95336.59;5115000;27;1910;-48
2021/12/13 09:24:57;;;;;;;;;;;;;;;3.35;71.06;95333.63;5115543;28;1051;-48
2021/12/13 09:27:29;;;;;;;;;;;;;;;3.29;71.63;95334.94;5115148;28;1077;-48
2021/12/13 09:30:06;;;;;;;;;;;;;;;3.31;71.34;95333.84;5114861;28;1619;-48
2021/12/13 09:32:35;;;;;;;;;;;;;;;3.39;71.64;95329.81;5115304;28;977;-48
2021/12/13 09:35:36;;;;;;;;;;;;;;;3.34;71.61;95327.50;5115161;28;1028;-48
2021/12/13 09:38:20;;;;;;;;;;;;;;;3.20;72.40;95327.66;5051072;28;1322;-48
2021/12/13 09:41:07;;;;;;;;;;;;;;;3.21;72.23;95322.28;5110142;28;1906;-48
2021/12/13 09:43:40;;;;;;;;;;;;;;;3.18;72.34;95325.13;5104232;28;1548;-48
2021/12/13 09:46:07;;;;;;;;;;;;;;;3.11;72.26;95321.25;5115086;28;961;-48
2021/12/13 09:48:35;;;;;;;;;;;;;;;3.11;72.59;95329.16;5114907;27;1062;-48
2021/12/13 09:51:14;;;;;;;;;;;;;;;3.07;72.48;95323.28;5114686;28;960;-48
2021/12/13 09:53:41;;;;;;;;;;;;;;;3.08;73.16;95319.69;5114889;28;981;-48
2021/12/13 09:56:10;;;;;;;;;;;;;;;3.08;73.61;95324.13;5114935;28;1035;-48
2021/12/13 09:58:49;;;;;;;;;;;;;;;3.13;73.47;95316.72;5114777;28;976;-48
2021/12/13 10:01:21;;;;;;;;;;;;;;;3.18;73.86;95319.00;5114830;27;1905;-48
2021/12/13 10:03:56;;;;;;;;;;;;;;;3.06;74.91;95326.03;5114367;28;1892;-48
2021/12/13 10:06:24;;;;;;;;;;;;;;;3.08;75.58;95318.84;5114769;28;950;-48
2021/12/13 10:09:03;;;;;;;;;;;;;;;2.97;76.38;95318.78;5114658;28;980;-48
2021/12/13 10:11:34;;;;;;;;;;;;;;;2.95;76.56;95318.03;5114490;28;996;-48
2021/12/13 10:14:00;;;;;;;;;;;;;;;2.99;76.64;95317.69;5114568;28;1133;-48
2021/12/13 10:16:31;;;;;;;;;;;;;;;2.91;77.44;95320.06;5114606;28;1024;-48
2021/12/13 10:18:58;;;;;;;;;;;;;;;2.84;78.25;95319.63;5114434;28;1114;-48
2021/12/13 10:21:26;;;;;;;;;;;;;;;2.91;78.12;95312.13;5114414;28;1902;-48
2021/12/13 10:24:01;;;;;;;;;;;;;;;2.80;78.54;95312.91;5114556;28;984;-48
2021/12/13 10:26:29;;;;;;;;;;;;;;;2.72;79.38;95313.44;5114336;28;1051;-49
2021/12/13 10:28:56;;;;;;;;;;;;;;;2.76;79.52;95315.88;5113743;28;1260;-49
2021/12/13 10:31:26;;;;;;;;;;;;;;;2.80;79.22;95312.91;5114174;28;1036;-47
2021/12/13 10:33:53;;;;;;;;;;;;;;;2.93;78.82;95304.94;5113923;28;1106;-48
2021/12/13 10:36:19;;;;;;;;;;;;;;;2.87;79.66;95306.22;5114406;28;1035;-48
2021/12/13 10:38:52;;;;;;;;;;;;;;;2.83;79.76;95306.56;5114398;28;1067;-48
2021/12/13 10:41:22;;;;;;;;;;;;;;;2.86;78.99;95306.31;5114015;28;1910;-48
2021/12/13 10:43:51;;;;;;;;;;;;;;;2.97;78.84;95309.03;5113905;28;1104;-48
2021/12/13 10:46:20;;;;;;;;;;;;;;;3.07;78.58;95302.16;5114233;28;1035;-48
2021/12/13 10:48:48;;;;;;;;;;;;;;;3.13;78.36;95290.28;5114668;28;1029;-48
2021/12/13 10:51:17;;;;;;;;;;;;;;;3.07;78.56;95303.94;5118549;28;1047;-48
2021/12/13 10:53:44;;;;;;;;;;;;;;;3.04;79.44;95299.72;5118505;28;988;-48
2021/12/13 10:56:19;;;;;;;;;;;;;;;2.87;80.73;95303.59;5118443;28;1039;-48
2021/12/13 10:58:47;;;;;;;;;;;;;;;2.77;81.46;95301.69;5117966;28;1021;-48
2021/12/13 11:01:18;;;;;;;;;;;;;;;2.81;81.40;95295.25;5117964;28;1979;-48
2021/12/13 11:03:44;;;;;;;;;;;;;;;2.85;81.68;95300.22;5117897;28;1096;-48
2021/12/13 11:06:11;;;;;;;;;;;;;;;2.80;82.11;95298.84;5118273;28;1049;-48
2021/12/13 11:08:42;;;;;;;;;;;;;;;2.77;82.32;95291.13;5118121;28;977;-48
2021/12/13 11:11:15;;;;;;;;;;;;;;;2.85;82.15;95299.38;5118172;28;1067;-48
2021/12/13 11:13:42;;;;;;;;;;;;;;;2.94;81.55;95290.78;5117919;28;984;-48
2021/12/13 11:16:19;;;;;;;;;;;;;;;3.08;81.41;95289.78;5117799;28;973;-48
2021/12/13 11:18:45;;;;;;;;;;;;;;;3.13;80.86;95288.50;5117764;28;1025;-48
2021/12/13 11:21:14;;;;;;;;;;;;;;;3.08;81.32;95287.13;5117469;28;1983;-48
2021/12/13 11:23:40;;;;;;;;;;;;;;;3.06;81.09;95283.75;5116711;28;976;-48
2021/12/13 11:26:09;;;;;;;;;;;;;;;3.06;81.37;95283.75;5117616;28;1057;-48
2021/12/13 11:28:35;;;;;;;;;;;;;;;3.03;81.17;95276.06;5117589;28;1020;-48
2021/12/13 11:31:14;;;;;;;;;;;;;;;3.08;81.16;95285.31;5117150;28;1405;-48
2021/12/13 11:33:59;;;;;;;;;;;;;;;3.08;80.89;95282.69;5116517;28;1039;-48
2021/12/13 11:36:49;;;;;;;;;;;;;;;3.07;81.67;95282.78;5117604;28;1020;-48
2021/12/13 11:39:47;;;;;;;;;;;;;;;3.05;80.72;95290.00;5117417;28;1040;-48
2021/12/13 11:42:31;;;;;;;;;;;;;;;3.11;79.76;95278.97;5083046;28;1987;-48
2021/12/13 11:45:23;;;;;;;;;;;;;;;3.18;80.40;95288.13;5117400;28;989;-48
2021/12/13 11:48:08;;;;;;;;;;;;;;;3.30;80.01;95279.31;5117221;28;1874;-48
2021/12/13 11:50:38;;;;;;;;;;;;;;;3.29;80.15;95272.34;5117060;28;1036;-48
2021/12/13 11:53:22;;;;;;;;;;;;;;;3.41;79.77;95280.31;5117078;28;1105;-48
2021/12/13 11:55:55;;;;;;;;;;;;;;;3.41;78.49;95275.03;5117130;28;1047;-48
2021/12/13 11:58:30;;;;;;;;;;;;;;;3.41;79.21;95275.84;5117082;28;1039;-48
2021/12/13 12:01:17;;;;;;;;;;;;;;;3.42;78.97;95279.38;5115449;28;1992;-48
2021/12/13 12:03:46;;;;;;;;;;;;;;;3.38;79.65;95283.16;5117128;28;980;-48
2021/12/13 12:06:31;;;;;;;;;;;;;;;3.37;79.28;95278.84;5116937;28;989;-48
2021/12/13 12:09:10;;;;;;;;;;;;;;;3.29;80.01;95287.34;5116814;28;1026;-48
2021/12/13 12:11:59;;;;;;;;;;;;;;;3.24;79.96;95281.56;5116872;28;1046;-48
2021/12/13 12:14:28;;;;;;;;;;;;;;;3.22;80.93;95286.94;5087678;28;1538;-48
2021/12/13 12:16:55;;;;;;;;;;;;;;;3.23;80.14;95291.28;5116563;28;1099;-48
2021/12/13 12:19:27;;;;;;;;;;;;;;;3.28;79.72;95290.94;5116504;27;1116;-48
2021/12/13 12:21:56;;;;;;;;;;;;;;;3.22;80.57;95292.22;5116651;28;1909;-48
2021/12/13 12:24:29;;;;;;;;;;;;;;;3.25;81.12;95297.31;5116735;28;1017;-48
2021/12/13 12:27:12;;;;;;;;;;;;;;;3.35;80.95;95300.09;5116635;28;1059;-48
2021/12/13 12:29:40;;;;;;;;;;;;;;;3.42;80.72;95289.94;5116056;28;1331;-48
2021/12/13 12:32:06;;;;;;;;;;;;;;;3.42;80.65;95301.34;5116594;28;1043;-48
2021/12/13 12:34:33;;;;;;;;;;;;;;;3.43;80.51;95299.53;5116218;28;1128;-48
2021/12/13 12:36:59;;;;;;;;;;;;;;;3.51;80.35;95290.09;5116487;28;1028;-48
2021/12/13 12:39:44;;;;;;;;;;;;;;;3.50;80.16;95295.50;5116303;28;1043;-48
2021/12/13 12:42:23;;;;;;;;;;;;;;;3.49;80.10;95302.59;5115972;28;1906;-48
2021/12/13 12:44:55;;;;;;;;;;;;;;;3.59;79.50;95307.19;5116211;28;1083;-48
2021/12/13 12:47:28;;;;;;;;;;;;;;;3.78;78.04;95304.00;5116323;28;1012;-48
2021/12/13 12:50:10;;;;;;;;;;;;;;;3.75;78.28;95310.34;5116122;28;957;-48
2021/12/13 12:52:45;;;;;;;;;;;;;;;3.62;79.33;95309.59;5115950;28;1048;-48
2021/12/13 12:55:13;;;;;;;;;;;;;;;3.53;79.39;95316.41;5116193;28;1139;-48
2021/12/13 12:57:39;;;;;;;;;;;;;;;3.50;79.58;95312.19;5115525;28;1036;-48
2021/12/13 13:00:05;;;;;;;;;;;;;;;3.58;78.80;95313.41;5115819;28;1041;-48
2021/12/13 13:02:32;;;;;;;;;;;;;;;3.50;77.82;95311.34;5115932;28;1919;-48
2021/12/13 13:05:03;;;;;;;;;;;;;;;3.64;76.95;95316.47;5115835;28;1043;-48
2021/12/13 13:07:31;;;;;;;;;;;;;;;3.63;76.85;95317.41;5115685;28;1041;-48
2021/12/13 13:09:59;;;;;;;;;;;;;;;3.61;76.84;95319.31;5115736;28;1023;-48
2021/12/13 13:12:31;;;;;;;;;;;;;;;3.61;77.55;95318.50;5115064;28;1096;-48
2021/12/13 13:14:59;;;;;;;;;;;;;;;3.59;77.56;95315.13;5115700;28;1035;-48
2021/12/13 13:17:27;;;;;;;;;;;;;;;3.68;76.63;95317.06;5115456;28;1048;-48
2021/12/13 13:19:55;;;;;;;;;;;;;;;3.66;76.58;95322.47;5115487;28;981;-48
2021/12/13 13:22:32;;;;;;;;;;;;;;;3.60;77.19;95330.84;5115515;28;1914;-48
2021/12/13 13:25:02;;;;;;;;;;;;;;;3.51;78.77;95336.84;5115273;28;1017;-48
2021/12/13 13:27:30;;;;;;;;;;;;;;;3.50;79.21;95335.16;5115154;28;985;-48
2021/12/13 13:29:56;;;;;;;;;;;;;;;3.49;79.27;95330.78;5114921;28;1347;-48
2021/12/13 13:32:23;;;;;;;;;;;;;;;3.52;78.52;95336.69;5115118;28;1072;-48
2021/12/13 13:34:54;;;;;;;;;;;;;;;3.49;79.00;95342.25;5115346;28;1054;-48
2021/12/13 13:37:22;;;;;;;;;;;;;;;3.43;79.57;95341.84;5115056;28;1024;-48
2021/12/13 13:39:51;;;;;;;;;;;;;;;3.45;78.71;95338.13;5115255;28;976;-48
2021/12/13 13:42:20;;;;;;;;;;;;;;;3.56;78.39;95342.63;5114802;28;1914;-48
2021/12/13 13:44:48;;;;;;;;;;;;;;;3.53;78.18;95348.16;5115000;28;1004;-48